sensor_id;sensor_type;location;lat;lon;timestamp;P1;durP1;ratioP1;P2;durP2;ratioP2
66546;SDS011;53400;50.364;14.874;2024-03-23T00:54:05;22.67;;;13.98;;
66546;SDS011;53400;50.364;14.874;2024-03-23T00:56:31;22.48;;;13.88;;
66546;SDS011;53400;50.364;14.874;2024-03-23T00:58:57;21.35;;;13.60;;
66546;SDS011;53400;50.364;14.874;2024-03-23T01:01:22;22.90;;;13.05;;
66546;SDS011;53400;50.364;14.874;2024-03-23T01:03:48;21.98;;;13.73;;
66546;SDS011;53400;50.364;14.874;2024-03-23T01:06:14;21.65;;;13.10;;
66546;SDS011;53400;50.364;14.874;2024-03-23T01:08:39;24.58;;;13.68;;
66546;SDS011;53400;50.364;14.874;2024-03-23T01:11:06;20.33;;;13.07;;
66546;SDS011;53400;50.364;14.874;2024-03-23T01:13:32;23.35;;;14.70;;
66546;SDS011;53400;50.364;14.874;2024-03-23T01:15:58;23.58;;;14.32;;
66546;SDS011;53400;50.364;14.874;2024-03-23T01:18:24;21.33;;;13.02;;
66546;SDS011;53400;50.364;14.874;2024-03-23T01:20:53;20.83;;;14.07;;
66546;SDS011;53400;50.364;14.874;2024-03-23T01:23:19;20.95;;;13.15;;
66546;SDS011;53400;50.364;14.874;2024-03-23T01:25:51;21.63;;;13.30;;
66546;SDS011;53400;50.364;14.874;2024-03-23T01:28:19;23.27;;;13.35;;
66546;SDS011;53400;50.364;14.874;2024-03-23T01:30:44;23.98;;;14.38;;
66546;SDS011;53400;50.364;14.874;2024-03-23T01:33:10;24.25;;;14.25;;
66546;SDS011;53400;50.364;14.874;2024-03-23T01:35:37;22.63;;;13.63;;
66546;SDS011;53400;50.364;14.874;2024-03-23T01:38:03;22.33;;;14.15;;
66546;SDS011;53400;50.364;14.874;2024-03-23T01:40:29;21.52;;;13.98;;
66546;SDS011;53400;50.364;14.874;2024-03-23T01:42:57;21.77;;;14.05;;
66546;SDS011;53400;50.364;14.874;2024-03-23T01:45:25;22.73;;;14.20;;
66546;SDS011;53400;50.364;14.874;2024-03-23T01:47:51;23.75;;;13.32;;
66546;SDS011;53400;50.364;14.874;2024-03-23T01:50:18;19.55;;;13.30;;
66546;SDS011;53400;50.364;14.874;2024-03-23T01:52:44;20.60;;;12.70;;
66546;SDS011;53400;50.364;14.874;2024-03-23T01:55:10;20.95;;;12.88;;
66546;SDS011;53400;50.364;14.874;2024-03-23T01:57:35;21.02;;;12.80;;
66546;SDS011;53400;50.364;14.874;2024-03-23T02:00:01;18.73;;;12.18;;
66546;SDS011;53400;50.364;14.874;2024-03-23T02:02:29;21.38;;;12.48;;
66546;SDS011;53400;50.364;14.874;2024-03-23T02:04:54;21.13;;;12.75;;
66546;SDS011;53400;50.364;14.874;2024-03-23T02:07:20;21.75;;;12.20;;
66546;SDS011;53400;50.364;14.874;2024-03-23T02:09:46;21.52;;;13.77;;
66546;SDS011;53400;50.364;14.874;2024-03-23T02:12:12;20.30;;;13.02;;
66546;SDS011;53400;50.364;14.874;2024-03-23T02:14:37;22.90;;;12.88;;
66546;SDS011;53400;50.364;14.874;2024-03-23T02:17:03;19.27;;;12.35;;
66546;SDS011;53400;50.364;14.874;2024-03-23T02:19:31;21.08;;;13.20;;
66546;SDS011;53400;50.364;14.874;2024-03-23T02:21:56;19.02;;;11.35;;
66546;SDS011;53400;50.364;14.874;2024-03-23T02:24:23;19.13;;;11.95;;
66546;SDS011;53400;50.364;14.874;2024-03-23T02:26:49;20.13;;;12.52;;
66546;SDS011;53400;50.364;14.874;2024-03-23T02:29:15;20.45;;;12.88;;
66546;SDS011;53400;50.364;14.874;2024-03-23T02:31:40;21.70;;;12.50;;
66546;SDS011;53400;50.364;14.874;2024-03-23T02:34:06;18.35;;;11.32;;
66546;SDS011;53400;50.364;14.874;2024-03-23T02:36:32;19.27;;;12.07;;
66546;SDS011;53400;50.364;14.874;2024-03-23T02:38:57;21.50;;;12.98;;
66546;SDS011;53400;50.364;14.874;2024-03-23T02:41:25;20.45;;;11.75;;
66546;SDS011;53400;50.364;14.874;2024-03-23T02:43:50;21.83;;;12.65;;
66546;SDS011;53400;50.364;14.874;2024-03-23T02:46:16;23.40;;;13.38;;
66546;SDS011;53400;50.364;14.874;2024-03-23T02:48:42;22.20;;;13.77;;
66546;SDS011;53400;50.364;14.874;2024-03-23T02:51:08;22.77;;;13.68;;
66546;SDS011;53400;50.364;14.874;2024-03-23T02:53:34;23.30;;;13.50;;
66546;SDS011;53400;50.364;14.874;2024-03-23T02:56:00;23.75;;;12.77;;
66546;SDS011;53400;50.364;14.874;2024-03-23T02:58:27;22.02;;;13.48;;
66546;SDS011;53400;50.364;14.874;2024-03-23T03:00:53;21.23;;;12.95;;
66546;SDS011;53400;50.364;14.874;2024-03-23T03:03:18;21.48;;;12.93;;
66546;SDS011;53400;50.364;14.874;2024-03-23T03:05:44;21.98;;;12.77;;
66546;SDS011;53400;50.364;14.874;2024-03-23T03:08:10;20.42;;;12.07;;
66546;SDS011;53400;50.364;14.874;2024-03-23T03:10:36;21.23;;;12.73;;
66546;SDS011;53400;50.364;14.874;2024-03-23T03:13:01;23.83;;;12.93;;
66546;SDS011;53400;50.364;14.874;2024-03-23T03:15:29;21.42;;;13.00;;
66546;SDS011;53400;50.364;14.874;2024-03-23T03:17:54;22.98;;;13.23;;
66546;SDS011;53400;50.364;14.874;2024-03-23T03:20:20;21.42;;;12.48;;
66546;SDS011;53400;50.364;14.874;2024-03-23T03:22:47;20.90;;;13.02;;
66546;SDS011;53400;50.364;14.874;2024-03-23T03:25:14;21.13;;;13.38;;
66546;SDS011;53400;50.364;14.874;2024-03-23T03:27:39;20.15;;;12.57;;
66546;SDS011;53400;50.364;14.874;2024-03-23T03:30:05;21.95;;;13.52;;
66546;SDS011;53400;50.364;14.874;2024-03-23T03:32:35;21.38;;;13.15;;
66546;SDS011;53400;50.364;14.874;2024-03-23T03:35:00;21.67;;;13.45;;
66546;SDS011;53400;50.364;14.874;2024-03-23T03:37:26;22.15;;;13.35;;
66546;SDS011;53400;50.364;14.874;2024-03-23T03:39:52;22.38;;;13.50;;
66546;SDS011;53400;50.364;14.874;2024-03-23T03:42:18;21.77;;;12.95;;
66546;SDS011;53400;50.364;14.874;2024-03-23T03:44:43;22.90;;;13.40;;
66546;SDS011;53400;50.364;14.874;2024-03-23T03:47:09;23.58;;;14.48;;
66546;SDS011;53400;50.364;14.874;2024-03-23T03:49:36;22.00;;;13.20;;
66546;SDS011;53400;50.364;14.874;2024-03-23T03:52:02;24.17;;;15.20;;
66546;SDS011;53400;50.364;14.874;2024-03-23T03:54:28;22.75;;;13.52;;
66546;SDS011;53400;50.364;14.874;2024-03-23T03:56:54;22.15;;;13.35;;
66546;SDS011;53400;50.364;14.874;2024-03-23T03:59:19;24.63;;;14.30;;
66546;SDS011;53400;50.364;14.874;2024-03-23T04:01:45;21.67;;;13.02;;
66546;SDS011;53400;50.364;14.874;2024-03-23T04:04:11;24.13;;;14.35;;
66546;SDS011;53400;50.364;14.874;2024-03-23T04:06:38;21.33;;;13.73;;
66546;SDS011;53400;50.364;14.874;2024-03-23T04:09:04;20.42;;;12.73;;
66546;SDS011;53400;50.364;14.874;2024-03-23T04:11:31;23.52;;;13.60;;
66546;SDS011;53400;50.364;14.874;2024-03-23T04:13:57;21.80;;;13.15;;
66546;SDS011;53400;50.364;14.874;2024-03-23T04:16:29;20.88;;;12.02;;
66546;SDS011;53400;50.364;14.874;2024-03-23T04:19:00;20.77;;;12.40;;
66546;SDS011;53400;50.364;14.874;2024-03-23T04:21:26;20.48;;;12.45;;
66546;SDS011;53400;50.364;14.874;2024-03-23T04:23:53;21.73;;;12.10;;
66546;SDS011;53400;50.364;14.874;2024-03-23T04:26:19;22.73;;;12.40;;
66546;SDS011;53400;50.364;14.874;2024-03-23T04:28:44;21.70;;;12.32;;
66546;SDS011;53400;50.364;14.874;2024-03-23T04:31:10;20.17;;;11.85;;
66546;SDS011;53400;50.364;14.874;2024-03-23T04:33:36;20.13;;;12.73;;
66546;SDS011;53400;50.364;14.874;2024-03-23T04:36:02;19.40;;;12.07;;
66546;SDS011;53400;50.364;14.874;2024-03-23T04:38:29;21.20;;;11.50;;
66546;SDS011;53400;50.364;14.874;2024-03-23T04:40:56;19.88;;;11.23;;
66546;SDS011;53400;50.364;14.874;2024-03-23T04:43:22;19.10;;;11.57;;
66546;SDS011;53400;50.364;14.874;2024-03-23T04:45:48;21.58;;;12.02;;
66546;SDS011;53400;50.364;14.874;2024-03-23T04:48:14;20.17;;;12.05;;
66546;SDS011;53400;50.364;14.874;2024-03-23T04:50:40;21.35;;;11.27;;
66546;SDS011;53400;50.364;14.874;2024-03-23T04:53:06;19.52;;;11.07;;
66546;SDS011;53400;50.364;14.874;2024-03-23T04:55:32;19.30;;;11.68;;
66546;SDS011;53400;50.364;14.874;2024-03-23T04:57:59;22.80;;;11.60;;
66546;SDS011;53400;50.364;14.874;2024-03-23T05:00:25;21.92;;;11.45;;
66546;SDS011;53400;50.364;14.874;2024-03-23T05:02:51;20.67;;;11.35;;
66546;SDS011;53400;50.364;14.874;2024-03-23T05:05:18;19.25;;;10.57;;
66546;SDS011;53400;50.364;14.874;2024-03-23T05:07:44;20.42;;;11.60;;
66546;SDS011;53400;50.364;14.874;2024-03-23T05:10:09;22.92;;;12.27;;
66546;SDS011;53400;50.364;14.874;2024-03-23T05:12:36;18.80;;;11.38;;
66546;SDS011;53400;50.364;14.874;2024-03-23T05:15:03;18.67;;;10.52;;
66546;SDS011;53400;50.364;14.874;2024-03-23T05:17:30;19.35;;;11.50;;
66546;SDS011;53400;50.364;14.874;2024-03-23T05:19:56;19.95;;;10.95;;
66546;SDS011;53400;50.364;14.874;2024-03-23T05:22:22;18.88;;;11.52;;
66546;SDS011;53400;50.364;14.874;2024-03-23T05:24:48;21.27;;;11.90;;
66546;SDS011;53400;50.364;14.874;2024-03-23T05:27:14;18.40;;;11.18;;
66546;SDS011;53400;50.364;14.874;2024-03-23T05:29:40;20.17;;;10.88;;
66546;SDS011;53400;50.364;14.874;2024-03-23T05:32:07;21.33;;;12.07;;
66546;SDS011;53400;50.364;14.874;2024-03-23T05:34:33;21.08;;;11.50;;
66546;SDS011;53400;50.364;14.874;2024-03-23T05:36:59;21.27;;;11.48;;
66546;SDS011;53400;50.364;14.874;2024-03-23T05:39:24;21.02;;;11.75;;
66546;SDS011;53400;50.364;14.874;2024-03-23T05:41:50;19.00;;;10.88;;
66546;SDS011;53400;50.364;14.874;2024-03-23T05:44:16;20.90;;;11.95;;
66546;SDS011;53400;50.364;14.874;2024-03-23T05:46:42;21.00;;;11.98;;
66546;SDS011;53400;50.364;14.874;2024-03-23T05:49:15;18.90;;;11.05;;
66546;SDS011;53400;50.364;14.874;2024-03-23T05:51:42;19.90;;;12.60;;
66546;SDS011;53400;50.364;14.874;2024-03-23T05:54:08;20.92;;;12.13;;
66546;SDS011;53400;50.364;14.874;2024-03-23T05:56:33;19.88;;;11.80;;
66546;SDS011;53400;50.364;14.874;2024-03-23T05:58:59;19.95;;;11.52;;
66546;SDS011;53400;50.364;14.874;2024-03-23T06:01:25;21.63;;;12.48;;
66546;SDS011;53400;50.364;14.874;2024-03-23T06:03:53;17.92;;;10.77;;
66546;SDS011;53400;50.364;14.874;2024-03-23T06:06:21;20.85;;;12.25;;
66546;SDS011;53400;50.364;14.874;2024-03-23T06:08:47;20.95;;;11.70;;
66546;SDS011;53400;50.364;14.874;2024-03-23T06:11:12;21.40;;;11.50;;
66546;SDS011;53400;50.364;14.874;2024-03-23T06:13:38;20.15;;;11.65;;
66546;SDS011;53400;50.364;14.874;2024-03-23T06:16:04;20.52;;;11.55;;
66546;SDS011;53400;50.364;14.874;2024-03-23T06:18:30;21.40;;;11.52;;
66546;SDS011;53400;50.364;14.874;2024-03-23T06:20:57;18.58;;;11.05;;
66546;SDS011;53400;50.364;14.874;2024-03-23T06:23:23;19.38;;;11.40;;
66546;SDS011;53400;50.364;14.874;2024-03-23T06:25:49;19.40;;;11.32;;
66546;SDS011;53400;50.364;14.874;2024-03-23T06:28:15;19.42;;;11.27;;
66546;SDS011;53400;50.364;14.874;2024-03-23T06:30:41;19.63;;;12.10;;
66546;SDS011;53400;50.364;14.874;2024-03-23T06:33:07;17.00;;;11.20;;
66546;SDS011;53400;50.364;14.874;2024-03-23T06:35:33;19.50;;;11.27;;
66546;SDS011;53400;50.364;14.874;2024-03-23T06:37:58;19.83;;;12.00;;
66546;SDS011;53400;50.364;14.874;2024-03-23T06:40:25;19.50;;;11.77;;
66546;SDS011;53400;50.364;14.874;2024-03-23T06:42:51;19.77;;;11.45;;
66546;SDS011;53400;50.364;14.874;2024-03-23T06:45:17;20.33;;;11.88;;
66546;SDS011;53400;50.364;14.874;2024-03-23T06:47:48;20.33;;;12.18;;
66546;SDS011;53400;50.364;14.874;2024-03-23T06:50:14;21.83;;;11.65;;
66546;SDS011;53400;50.364;14.874;2024-03-23T06:52:39;21.48;;;12.25;;
66546;SDS011;53400;50.364;14.874;2024-03-23T06:55:05;20.63;;;12.10;;
66546;SDS011;53400;50.364;14.874;2024-03-23T06:57:33;21.10;;;12.25;;
66546;SDS011;53400;50.364;14.874;2024-03-23T06:59:59;18.90;;;11.18;;
66546;SDS011;53400;50.364;14.874;2024-03-23T07:02:24;21.60;;;13.18;;
66546;SDS011;53400;50.364;14.874;2024-03-23T07:04:50;20.67;;;12.80;;
66546;SDS011;53400;50.364;14.874;2024-03-23T07:07:16;19.95;;;12.60;;
66546;SDS011;53400;50.364;14.874;2024-03-23T07:09:41;21.48;;;13.05;;
66546;SDS011;53400;50.364;14.874;2024-03-23T07:12:07;20.13;;;11.60;;
66546;SDS011;53400;50.364;14.874;2024-03-23T07:14:34;21.05;;;12.40;;
66546;SDS011;53400;50.364;14.874;2024-03-23T07:17:00;20.00;;;12.45;;
66546;SDS011;53400;50.364;14.874;2024-03-23T07:19:26;17.67;;;10.55;;
66546;SDS011;53400;50.364;14.874;2024-03-23T07:21:52;17.85;;;11.32;;
66546;SDS011;53400;50.364;14.874;2024-03-23T07:24:18;21.52;;;12.07;;
66546;SDS011;53400;50.364;14.874;2024-03-23T07:26:44;19.67;;;11.60;;
66546;SDS011;53400;50.364;14.874;2024-03-23T07:29:10;23.92;;;12.38;;
66546;SDS011;53400;50.364;14.874;2024-03-23T07:31:36;20.65;;;12.07;;
66546;SDS011;53400;50.364;14.874;2024-03-23T07:34:04;19.88;;;11.93;;
66546;SDS011;53400;50.364;14.874;2024-03-23T07:36:30;20.50;;;11.48;;
66546;SDS011;53400;50.364;14.874;2024-03-23T07:38:56;22.00;;;13.02;;
66546;SDS011;53400;50.364;14.874;2024-03-23T07:41:22;23.42;;;12.90;;
66546;SDS011;53400;50.364;14.874;2024-03-23T07:43:48;20.45;;;13.02;;
66546;SDS011;53400;50.364;14.874;2024-03-23T07:46:15;25.40;;;12.98;;
66546;SDS011;53400;50.364;14.874;2024-03-23T07:48:43;21.42;;;12.98;;
66546;SDS011;53400;50.364;14.874;2024-03-23T07:51:09;18.92;;;11.23;;
66546;SDS011;53400;50.364;14.874;2024-03-23T07:53:36;17.95;;;10.73;;
66546;SDS011;53400;50.364;14.874;2024-03-23T07:56:05;19.15;;;12.27;;
66546;SDS011;53400;50.364;14.874;2024-03-23T07:58:32;18.25;;;11.88;;
66546;SDS011;53400;50.364;14.874;2024-03-23T08:01:03;18.13;;;11.05;;
66546;SDS011;53400;50.364;14.874;2024-03-23T08:03:29;20.83;;;12.75;;
66546;SDS011;53400;50.364;14.874;2024-03-23T08:05:56;17.52;;;11.15;;
66546;SDS011;53400;50.364;14.874;2024-03-23T08:08:22;18.25;;;11.02;;
66546;SDS011;53400;50.364;14.874;2024-03-23T08:10:48;18.65;;;11.38;;
66546;SDS011;53400;50.364;14.874;2024-03-23T08:13:15;18.13;;;10.68;;
66546;SDS011;53400;50.364;14.874;2024-03-23T08:15:40;19.35;;;11.60;;
66546;SDS011;53400;50.364;14.874;2024-03-23T08:18:06;16.75;;;10.15;;
66546;SDS011;53400;50.364;14.874;2024-03-23T08:20:32;16.23;;;9.68;;
66546;SDS011;53400;50.364;14.874;2024-03-23T08:22:59;17.17;;;10.60;;
66546;SDS011;53400;50.364;14.874;2024-03-23T08:25:25;15.35;;;10.73;;
66546;SDS011;53400;50.364;14.874;2024-03-23T08:27:51;17.40;;;10.52;;
66546;SDS011;53400;50.364;14.874;2024-03-23T08:30:17;15.98;;;10.88;;
66546;SDS011;53400;50.364;14.874;2024-03-23T08:32:44;17.10;;;11.20;;
66546;SDS011;53400;50.364;14.874;2024-03-23T08:35:09;16.80;;;10.75;;
66546;SDS011;53400;50.364;14.874;2024-03-23T08:37:35;17.33;;;10.23;;
66546;SDS011;53400;50.364;14.874;2024-03-23T08:40:03;16.58;;;10.68;;
66546;SDS011;53400;50.364;14.874;2024-03-23T08:42:29;16.90;;;9.93;;
66546;SDS011;53400;50.364;14.874;2024-03-23T08:44:55;14.27;;;10.38;;
66546;SDS011;53400;50.364;14.874;2024-03-23T08:47:21;16.88;;;11.52;;
66546;SDS011;53400;50.364;14.874;2024-03-23T08:49:46;14.90;;;9.32;;
66546;SDS011;53400;50.364;14.874;2024-03-23T08:52:12;17.02;;;11.00;;
66546;SDS011;53400;50.364;14.874;2024-03-23T08:54:38;16.25;;;11.50;;
66546;SDS011;53400;50.364;14.874;2024-03-23T08:57:05;16.92;;;11.38;;
66546;SDS011;53400;50.364;14.874;2024-03-23T08:59:32;16.27;;;10.82;;
66546;SDS011;53400;50.364;14.874;2024-03-23T09:01:58;14.57;;;10.00;;
66546;SDS011;53400;50.364;14.874;2024-03-23T09:04:24;16.10;;;10.32;;
66546;SDS011;53400;50.364;14.874;2024-03-23T09:06:50;13.75;;;8.65;;
66546;SDS011;53400;50.364;14.874;2024-03-23T09:09:16;11.82;;;8.35;;
66546;SDS011;53400;50.364;14.874;2024-03-23T09:11:42;11.77;;;8.23;;
66546;SDS011;53400;50.364;14.874;2024-03-23T09:14:09;12.27;;;8.45;;
66546;SDS011;53400;50.364;14.874;2024-03-23T09:16:35;8.93;;;6.50;;
66546;SDS011;53400;50.364;14.874;2024-03-23T09:19:00;9.90;;;6.43;;
66546;SDS011;53400;50.364;14.874;2024-03-23T09:21:26;10.38;;;6.35;;
66546;SDS011;53400;50.364;14.874;2024-03-23T09:23:52;10.10;;;6.55;;
66546;SDS011;53400;50.364;14.874;2024-03-23T09:26:18;12.02;;;6.75;;
66546;SDS011;53400;50.364;14.874;2024-03-23T09:28:43;9.82;;;6.55;;
66546;SDS011;53400;50.364;14.874;2024-03-23T09:31:11;9.27;;;6.13;;
66546;SDS011;53400;50.364;14.874;2024-03-23T09:33:39;9.98;;;6.20;;
66546;SDS011;53400;50.364;14.874;2024-03-23T09:36:05;9.68;;;6.55;;
66546;SDS011;53400;50.364;14.874;2024-03-23T09:38:32;9.43;;;6.00;;
66546;SDS011;53400;50.364;14.874;2024-03-23T09:40:58;9.73;;;6.10;;
66546;SDS011;53400;50.364;14.874;2024-03-23T09:43:24;9.52;;;5.70;;
66546;SDS011;53400;50.364;14.874;2024-03-23T09:45:50;10.73;;;5.63;;
66546;SDS011;53400;50.364;14.874;2024-03-23T09:48:18;9.00;;;5.00;;
66546;SDS011;53400;50.364;14.874;2024-03-23T09:50:45;7.75;;;5.18;;
66546;SDS011;53400;50.364;14.874;2024-03-23T09:53:11;7.45;;;4.38;;
66546;SDS011;53400;50.364;14.874;2024-03-23T09:55:38;9.48;;;4.55;;
66546;SDS011;53400;50.364;14.874;2024-03-23T09:58:04;9.40;;;5.25;;
66546;SDS011;53400;50.364;14.874;2024-03-23T10:00:31;9.45;;;5.07;;
66546;SDS011;53400;50.364;14.874;2024-03-23T10:02:57;9.45;;;5.47;;
66546;SDS011;53400;50.364;14.874;2024-03-23T10:05:28;10.35;;;5.95;;
66546;SDS011;53400;50.364;14.874;2024-03-23T10:07:56;8.02;;;4.70;;
66546;SDS011;53400;50.364;14.874;2024-03-23T10:10:22;8.65;;;5.57;;
66546;SDS011;53400;50.364;14.874;2024-03-23T10:12:50;10.45;;;7.20;;
66546;SDS011;53400;50.364;14.874;2024-03-23T10:15:18;9.07;;;5.43;;
66546;SDS011;53400;50.364;14.874;2024-03-23T10:17:45;8.52;;;5.47;;
66546;SDS011;53400;50.364;14.874;2024-03-23T10:20:11;9.38;;;5.78;;
66546;SDS011;53400;50.364;14.874;2024-03-23T10:22:38;8.95;;;5.47;;
66546;SDS011;53400;50.364;14.874;2024-03-23T10:25:08;9.82;;;5.57;;
66546;SDS011;53400;50.364;14.874;2024-03-23T10:27:34;10.68;;;6.15;;
66546;SDS011;53400;50.364;14.874;2024-03-23T10:30:07;9.75;;;5.78;;
66546;SDS011;53400;50.364;14.874;2024-03-23T10:32:33;8.88;;;5.75;;
66546;SDS011;53400;50.364;14.874;2024-03-23T10:35:13;9.18;;;5.72;;
66546;SDS011;53400;50.364;14.874;2024-03-23T10:37:40;9.85;;;5.53;;
66546;SDS011;53400;50.364;14.874;2024-03-23T10:40:08;10.43;;;6.88;;
66546;SDS011;53400;50.364;14.874;2024-03-23T10:42:36;7.72;;;4.38;;
66546;SDS011;53400;50.364;14.874;2024-03-23T10:45:04;7.53;;;4.13;;
66546;SDS011;53400;50.364;14.874;2024-03-23T10:47:30;6.90;;;4.30;;
66546;SDS011;53400;50.364;14.874;2024-03-23T10:49:56;7.07;;;4.10;;
66546;SDS011;53400;50.364;14.874;2024-03-23T10:52:22;8.15;;;4.53;;
66546;SDS011;53400;50.364;14.874;2024-03-23T10:54:49;8.88;;;4.22;;
66546;SDS011;53400;50.364;14.874;2024-03-23T10:57:17;7.53;;;4.43;;
66546;SDS011;53400;50.364;14.874;2024-03-23T10:59:45;7.82;;;4.10;;
66546;SDS011;53400;50.364;14.874;2024-03-23T11:02:18;8.57;;;4.18;;
66546;SDS011;53400;50.364;14.874;2024-03-23T11:04:45;7.18;;;4.20;;
66546;SDS011;53400;50.364;14.874;2024-03-23T11:07:28;7.32;;;4.45;;
66546;SDS011;53400;50.364;14.874;2024-03-23T11:09:56;6.72;;;4.00;;
66546;SDS011;53400;50.364;14.874;2024-03-23T11:12:26;7.82;;;4.63;;
66546;SDS011;53400;50.364;14.874;2024-03-23T11:14:53;8.27;;;4.43;;
66546;SDS011;53400;50.364;14.874;2024-03-23T11:17:20;7.78;;;4.50;;
66546;SDS011;53400;50.364;14.874;2024-03-23T11:19:52;9.68;;;5.07;;
66546;SDS011;53400;50.364;14.874;2024-03-23T11:25:14;9.52;;;4.30;;
66546;SDS011;53400;50.364;14.874;2024-03-23T11:27:41;8.68;;;5.03;;
66546;SDS011;53400;50.364;14.874;2024-03-23T11:30:14;8.88;;;5.10;;
66546;SDS011;53400;50.364;14.874;2024-03-23T11:32:41;7.82;;;4.68;;
66546;SDS011;53400;50.364;14.874;2024-03-23T11:35:08;8.13;;;4.35;;
66546;SDS011;53400;50.364;14.874;2024-03-23T11:37:35;7.35;;;4.10;;
66546;SDS011;53400;50.364;14.874;2024-03-23T11:40:18;6.97;;;4.00;;
66546;SDS011;53400;50.364;14.874;2024-03-23T11:42:44;8.73;;;4.53;;
66546;SDS011;53400;50.364;14.874;2024-03-23T11:45:11;7.97;;;4.03;;
66546;SDS011;53400;50.364;14.874;2024-03-23T11:47:37;8.88;;;4.70;;
66546;SDS011;53400;50.364;14.874;2024-03-23T11:50:03;8.63;;;4.80;;
66546;SDS011;53400;50.364;14.874;2024-03-23T11:52:29;9.75;;;5.50;;
66546;SDS011;53400;50.364;14.874;2024-03-23T11:55:02;10.25;;;5.68;;
66546;SDS011;53400;50.364;14.874;2024-03-23T11:57:30;7.55;;;5.07;;
66546;SDS011;53400;50.364;14.874;2024-03-23T11:59:56;9.68;;;5.95;;
66546;SDS011;53400;50.364;14.874;2024-03-23T12:02:22;10.35;;;6.10;;
66546;SDS011;53400;50.364;14.874;2024-03-23T12:04:48;10.65;;;5.97;;
66546;SDS011;53400;50.364;14.874;2024-03-23T12:07:14;7.90;;;5.30;;
66546;SDS011;53400;50.364;14.874;2024-03-23T12:09:41;8.38;;;5.53;;
66546;SDS011;53400;50.364;14.874;2024-03-23T12:12:08;8.27;;;4.82;;
66546;SDS011;53400;50.364;14.874;2024-03-23T12:14:37;8.93;;;4.43;;
66546;SDS011;53400;50.364;14.874;2024-03-23T12:17:09;7.47;;;4.32;;
66546;SDS011;53400;50.364;14.874;2024-03-23T12:19:36;6.57;;;3.97;;
66546;SDS011;53400;50.364;14.874;2024-03-23T12:22:02;6.32;;;3.40;;
66546;SDS011;53400;50.364;14.874;2024-03-23T12:24:29;6.10;;;3.53;;
66546;SDS011;53400;50.364;14.874;2024-03-23T12:26:54;7.03;;;3.00;;
66546;SDS011;53400;50.364;14.874;2024-03-23T12:29:20;7.13;;;3.15;;
66546;SDS011;53400;50.364;14.874;2024-03-23T12:31:47;4.20;;;1.63;;
66546;SDS011;53400;50.364;14.874;2024-03-23T12:34:13;3.47;;;1.50;;
66546;SDS011;53400;50.364;14.874;2024-03-23T12:36:39;4.18;;;1.50;;
66546;SDS011;53400;50.364;14.874;2024-03-23T12:39:05;3.55;;;1.08;;
66546;SDS011;53400;50.364;14.874;2024-03-23T12:41:30;2.50;;;1.10;;
66546;SDS011;53400;50.364;14.874;2024-03-23T12:43:56;4.28;;;1.50;;
66546;SDS011;53400;50.364;14.874;2024-03-23T12:46:22;2.65;;;1.13;;
66546;SDS011;53400;50.364;14.874;2024-03-23T12:48:50;3.85;;;1.60;;
66546;SDS011;53400;50.364;14.874;2024-03-23T12:51:15;3.97;;;1.90;;
66546;SDS011;53400;50.364;14.874;2024-03-23T12:53:41;3.25;;;1.20;;
66546;SDS011;53400;50.364;14.874;2024-03-23T12:56:07;1.35;;;0.70;;
66546;SDS011;53400;50.364;14.874;2024-03-23T12:58:37;1.42;;;0.68;;
66546;SDS011;53400;50.364;14.874;2024-03-23T13:01:03;1.42;;;0.60;;
66546;SDS011;53400;50.364;14.874;2024-03-23T13:03:29;1.73;;;0.82;;
66546;SDS011;53400;50.364;14.874;2024-03-23T13:05:56;1.70;;;0.50;;
66546;SDS011;53400;50.364;14.874;2024-03-23T13:08:22;2.30;;;0.60;;
66546;SDS011;53400;50.364;14.874;2024-03-23T13:10:47;1.58;;;0.60;;
66546;SDS011;53400;50.364;14.874;2024-03-23T13:13:17;1.08;;;0.50;;
66546;SDS011;53400;50.364;14.874;2024-03-23T13:15:42;1.60;;;0.70;;
66546;SDS011;53400;50.364;14.874;2024-03-23T13:18:15;1.38;;;0.60;;
66546;SDS011;53400;50.364;14.874;2024-03-23T13:20:40;1.25;;;0.63;;
66546;SDS011;53400;50.364;14.874;2024-03-23T13:23:08;1.98;;;0.80;;
66546;SDS011;53400;50.364;14.874;2024-03-23T13:25:34;1.23;;;0.73;;
66546;SDS011;53400;50.364;14.874;2024-03-23T13:28:00;3.50;;;1.10;;
66546;SDS011;53400;50.364;14.874;2024-03-23T13:30:26;1.55;;;0.90;;
66546;SDS011;53400;50.364;14.874;2024-03-23T13:32:52;2.17;;;1.00;;
66546;SDS011;53400;50.364;14.874;2024-03-23T13:35:17;2.33;;;1.10;;
66546;SDS011;53400;50.364;14.874;2024-03-23T13:37:43;2.97;;;1.10;;
66546;SDS011;53400;50.364;14.874;2024-03-23T13:40:11;4.45;;;1.60;;
66546;SDS011;53400;50.364;14.874;2024-03-23T13:42:37;4.85;;;1.20;;
66546;SDS011;53400;50.364;14.874;2024-03-23T13:45:03;6.00;;;2.17;;
66546;SDS011;53400;50.364;14.874;2024-03-23T13:47:29;1.85;;;0.70;;
66546;SDS011;53400;50.364;14.874;2024-03-23T13:49:55;1.98;;;0.88;;
66546;SDS011;53400;50.364;14.874;2024-03-23T13:52:21;2.08;;;0.90;;
66546;SDS011;53400;50.364;14.874;2024-03-23T13:54:50;2.28;;;0.80;;
66546;SDS011;53400;50.364;14.874;2024-03-23T13:57:18;3.22;;;0.80;;
66546;SDS011;53400;50.364;14.874;2024-03-23T13:59:46;2.95;;;1.50;;
66546;SDS011;53400;50.364;14.874;2024-03-23T14:02:12;1.77;;;0.80;;
66546;SDS011;53400;50.364;14.874;2024-03-23T14:04:39;2.33;;;0.88;;
66546;SDS011;53400;50.364;14.874;2024-03-23T14:07:05;3.03;;;0.90;;
66546;SDS011;53400;50.364;14.874;2024-03-23T14:09:32;2.25;;;0.60;;
66546;SDS011;53400;50.364;14.874;2024-03-23T14:11:58;5.15;;;2.28;;
66546;SDS011;53400;50.364;14.874;2024-03-23T14:14:26;1.58;;;0.70;;
66546;SDS011;53400;50.364;14.874;2024-03-23T14:16:53;1.90;;;0.70;;
66546;SDS011;53400;50.364;14.874;2024-03-23T14:19:18;2.88;;;0.98;;
66546;SDS011;53400;50.364;14.874;2024-03-23T14:21:44;1.65;;;0.60;;
66546;SDS011;53400;50.364;14.874;2024-03-23T14:24:10;2.00;;;0.80;;
66546;SDS011;53400;50.364;14.874;2024-03-23T14:26:36;2.55;;;0.85;;
66546;SDS011;53400;50.364;14.874;2024-03-23T14:29:02;2.53;;;0.80;;
66546;SDS011;53400;50.364;14.874;2024-03-23T14:31:30;2.30;;;0.70;;
66546;SDS011;53400;50.364;14.874;2024-03-23T14:33:56;1.23;;;0.70;;
66546;SDS011;53400;50.364;14.874;2024-03-23T14:36:21;2.47;;;0.90;;
66546;SDS011;53400;50.364;14.874;2024-03-23T14:38:47;2.35;;;0.80;;
66546;SDS011;53400;50.364;14.874;2024-03-23T14:41:14;1.58;;;0.80;;
66546;SDS011;53400;50.364;14.874;2024-03-23T14:43:39;2.63;;;0.88;;
66546;SDS011;53400;50.364;14.874;2024-03-23T14:46:06;1.77;;;0.90;;
66546;SDS011;53400;50.364;14.874;2024-03-23T14:48:33;2.50;;;1.00;;
66546;SDS011;53400;50.364;14.874;2024-03-23T14:51:00;1.63;;;0.77;;
66546;SDS011;53400;50.364;14.874;2024-03-23T14:53:26;2.20;;;0.98;;
66546;SDS011;53400;50.364;14.874;2024-03-23T14:55:55;1.75;;;0.70;;
66546;SDS011;53400;50.364;14.874;2024-03-23T14:58:21;1.80;;;0.70;;
66546;SDS011;53400;50.364;14.874;2024-03-23T15:00:48;1.75;;;0.88;;
66546;SDS011;53400;50.364;14.874;2024-03-23T15:03:14;2.00;;;0.90;;
66546;SDS011;53400;50.364;14.874;2024-03-23T15:05:41;2.22;;;0.90;;
66546;SDS011;53400;50.364;14.874;2024-03-23T15:08:07;1.05;;;0.73;;
66546;SDS011;53400;50.364;14.874;2024-03-23T15:10:33;1.92;;;0.82;;